createdAt,value
2023-05-16T00:01:45.724Z,4.75
2023-05-16T00:04:12.381Z,5.85
2023-05-16T00:06:39.028Z,6.22
2023-05-16T00:09:05.557Z,5.43
2023-05-16T00:14:54.221Z,6.55
2023-05-16T00:17:21.128Z,6.68
2023-05-16T00:19:49.167Z,7.18
2023-05-16T00:22:15.875Z,6.45
2023-05-16T00:24:42.394Z,7.32
2023-05-16T00:27:08.883Z,6.43
2023-05-16T00:29:35.701Z,6.75
2023-05-16T00:32:02.315Z,6.53
2023-05-16T00:34:29.029Z,8.00
2023-05-16T00:36:55.572Z,7.55
2023-05-16T00:39:22.113Z,7.00
2023-05-16T00:41:48.681Z,7.45
2023-05-16T00:44:15.290Z,7.22
2023-05-16T00:46:41.871Z,7.38
2023-05-16T00:49:08.599Z,7.55
2023-05-16T00:51:35.097Z,6.95
2023-05-16T00:54:01.673Z,6.32
2023-05-16T00:56:28.230Z,7.18
2023-05-16T00:58:54.806Z,7.93
2023-05-16T01:01:21.851Z,8.23
2023-05-16T01:03:48.409Z,6.88
2023-05-16T01:06:15.166Z,7.80
2023-05-16T01:08:41.851Z,8.15
2023-05-16T01:11:13.586Z,7.45
2023-05-16T01:13:55.805Z,8.10
2023-05-16T01:16:23.479Z,8.10
2023-05-16T01:19:25.866Z,8.95
2023-05-16T01:22:15.605Z,7.80
2023-05-16T01:25:01.068Z,6.53
2023-05-16T01:27:27.780Z,7.93
2023-05-16T01:29:57.380Z,7.10
2023-05-16T01:32:23.999Z,7.50
2023-05-16T01:34:51.208Z,6.03
2023-05-16T01:37:17.690Z,5.53
2023-05-16T01:40:08.015Z,6.40
2023-05-16T01:42:36.102Z,6.35
2023-05-16T01:45:29.518Z,6.32
2023-05-16T01:48:02.070Z,5.88
2023-05-16T01:50:29.085Z,5.82
2023-05-16T01:52:59.080Z,6.30
2023-05-16T01:55:44.572Z,6.10
2023-05-16T01:58:11.136Z,5.20
2023-05-16T02:00:37.683Z,5.38
2023-05-16T02:03:04.267Z,5.93
2023-05-16T02:05:31.533Z,5.70
2023-05-16T02:07:58.292Z,5.40
2023-05-16T02:10:24.868Z,6.57
2023-05-16T02:12:51.897Z,6.25
2023-05-16T02:15:18.512Z,5.35
2023-05-16T02:17:45.052Z,5.72
2023-05-16T02:20:12.000Z,5.97
2023-05-16T02:22:42.748Z,6.07
2023-05-16T02:25:09.505Z,6.05
2023-05-16T02:27:36.395Z,7.05
2023-05-16T02:30:02.948Z,6.40
2023-05-16T02:32:29.465Z,6.95
2023-05-16T02:34:55.976Z,6.68
2023-05-16T02:37:22.456Z,6.13
2023-05-16T02:39:49.029Z,5.75
2023-05-16T02:42:15.510Z,7.00
2023-05-16T02:44:42.223Z,6.65
2023-05-16T02:47:08.669Z,6.82
2023-05-16T02:49:35.174Z,6.63
2023-05-16T02:52:01.658Z,6.50
2023-05-16T02:54:28.176Z,7.65
2023-05-16T02:56:54.679Z,6.95
2023-05-16T02:59:21.251Z,7.10
2023-05-16T03:01:47.901Z,6.90
2023-05-16T03:04:14.587Z,7.07
2023-05-16T03:06:41.358Z,7.65
2023-05-16T03:09:07.940Z,7.95
2023-05-16T03:11:35.765Z,7.63
2023-05-16T03:14:03.273Z,7.03
2023-05-16T03:16:29.804Z,8.20
2023-05-16T03:18:56.375Z,8.50
2023-05-16T03:21:22.914Z,8.73
2023-05-16T03:23:49.476Z,8.48
2023-05-16T03:26:15.973Z,8.65
2023-05-16T03:28:42.467Z,9.05
2023-05-16T03:31:08.936Z,7.70
2023-05-16T03:33:35.443Z,8.75
2023-05-16T03:36:02.161Z,8.25
2023-05-16T03:38:28.794Z,7.57
2023-05-16T03:40:55.392Z,7.75
2023-05-16T03:43:21.865Z,6.93
2023-05-16T03:45:48.400Z,7.43
2023-05-16T03:48:14.999Z,7.03
2023-05-16T03:50:42.128Z,6.22
2023-05-16T03:53:09.117Z,7.57
2023-05-16T03:55:35.725Z,7.20
2023-05-16T03:58:02.883Z,7.15
2023-05-16T04:00:29.546Z,5.40
2023-05-16T04:02:56.162Z,6.13
2023-05-16T04:05:22.846Z,5.93
2023-05-16T04:07:49.403Z,6.05
2023-05-16T04:10:15.981Z,6.07
2023-05-16T04:12:42.506Z,5.88
2023-05-16T04:15:09.563Z,5.05
2023-05-16T04:17:36.535Z,5.07
2023-05-16T04:20:04.505Z,5.75
2023-05-16T04:22:31.075Z,5.03
2023-05-16T04:24:57.574Z,5.75
2023-05-16T04:27:24.170Z,5.28
2023-05-16T04:29:50.767Z,4.70
2023-05-16T04:32:17.831Z,4.93
2023-05-16T04:34:46.793Z,5.15
2023-05-16T04:37:13.879Z,4.68
2023-05-16T04:39:40.967Z,4.72
2023-05-16T04:42:07.602Z,4.70
2023-05-16T04:44:34.736Z,4.90
2023-05-16T04:47:01.787Z,3.88
2023-05-16T04:49:28.751Z,4.18
2023-05-16T04:51:55.209Z,3.67
2023-05-16T04:54:21.835Z,4.47
2023-05-16T04:56:48.345Z,4.07
2023-05-16T04:59:15.284Z,4.00
2023-05-16T05:01:41.872Z,4.15
2023-05-16T05:04:08.427Z,4.05
2023-05-16T05:06:35.005Z,4.63
2023-05-16T05:09:01.567Z,3.88
2023-05-16T05:11:28.727Z,4.07
2023-05-16T05:13:55.456Z,4.45
2023-05-16T05:16:22.252Z,3.75
2023-05-16T05:18:48.966Z,4.45
2023-05-16T05:21:15.644Z,4.70
2023-05-16T05:23:42.126Z,4.82
2023-05-16T05:26:08.632Z,4.53
2023-05-16T05:28:35.182Z,4.65
2023-05-16T05:31:01.738Z,4.28
2023-05-16T05:33:31.345Z,3.55
2023-05-16T05:35:57.896Z,4.30
2023-05-16T05:38:24.388Z,4.15
2023-05-16T05:40:51.165Z,3.80
2023-05-16T05:43:17.693Z,3.97
2023-05-16T05:45:44.510Z,3.65
2023-05-16T05:48:11.414Z,3.72
2023-05-16T05:50:38.048Z,3.13
2023-05-16T05:53:04.593Z,3.45
2023-05-16T05:55:31.141Z,4.00
2023-05-16T05:57:57.781Z,3.67
2023-05-16T06:00:24.333Z,4.13
2023-05-16T06:02:50.992Z,3.97
2023-05-16T06:05:17.696Z,3.63
2023-05-16T06:07:44.278Z,4.28
2023-05-16T06:10:10.827Z,3.65
2023-05-16T06:12:37.389Z,3.38
2023-05-16T06:15:03.986Z,4.10
2023-05-16T06:17:30.718Z,4.30
2023-05-16T06:19:57.672Z,4.03
2023-05-16T06:22:24.298Z,4.50
2023-05-16T06:24:50.878Z,3.85
2023-05-16T06:27:17.392Z,3.97
2023-05-16T06:29:43.942Z,3.42
2023-05-16T06:32:13.074Z,3.83
2023-05-16T06:34:39.907Z,4.85
2023-05-16T06:37:06.446Z,4.70
2023-05-16T06:39:33.052Z,4.72
2023-05-16T06:41:59.605Z,4.50
2023-05-16T06:44:26.141Z,4.80
2023-05-16T06:46:52.908Z,4.38
2023-05-16T06:49:19.515Z,4.88
2023-05-16T06:51:46.116Z,5.50
2023-05-16T06:54:12.736Z,4.78
2023-05-16T06:56:39.407Z,5.40
2023-05-16T06:59:06.055Z,5.15
2023-05-16T07:01:32.705Z,4.13
2023-05-16T07:03:59.563Z,5.40
2023-05-16T07:06:26.851Z,5.03
2023-05-16T07:08:53.457Z,5.45
2023-05-16T07:11:19.995Z,5.35
2023-05-16T07:13:46.570Z,6.03
2023-05-16T07:16:13.488Z,6.03
2023-05-16T07:18:40.159Z,5.80
2023-05-16T07:21:06.745Z,4.95
2023-05-16T07:23:33.306Z,6.85
2023-05-16T07:25:59.873Z,5.25
2023-05-16T07:28:26.453Z,5.65
2023-05-16T07:30:52.985Z,6.20
2023-05-16T07:33:19.515Z,5.90
2023-05-16T07:35:46.511Z,5.03
2023-05-16T07:38:13.407Z,5.20
2023-05-16T07:40:40.179Z,4.65
2023-05-16T07:43:06.680Z,4.70
2023-05-16T07:45:33.267Z,4.25
2023-05-16T07:48:00.511Z,4.78
2023-05-16T07:50:27.528Z,5.05
2023-05-16T07:52:54.237Z,4.63
2023-05-16T07:55:22.421Z,3.85
2023-05-16T07:57:49.314Z,5.10
2023-05-16T08:00:16.380Z,4.32
2023-05-16T08:02:45.887Z,5.18
2023-05-16T08:05:14.055Z,4.85
2023-05-16T08:07:40.776Z,4.50
2023-05-16T08:10:08.236Z,5.15
2023-05-16T08:12:34.920Z,4.72
2023-05-16T08:15:01.568Z,5.25
2023-05-16T08:17:28.130Z,5.70
2023-05-16T08:19:54.798Z,4.85
2023-05-16T08:22:21.389Z,5.15
2023-05-16T08:24:47.922Z,5.03
2023-05-16T08:27:14.463Z,5.47
2023-05-16T08:29:41.194Z,4.88
2023-05-16T08:32:08.670Z,4.90
2023-05-16T08:34:35.236Z,4.53
2023-05-16T08:37:01.817Z,4.65
2023-05-16T08:39:28.740Z,4.57
2023-05-16T08:41:55.263Z,5.18
2023-05-16T08:44:22.348Z,4.57
2023-05-16T08:46:53.102Z,4.50
2023-05-16T08:49:20.095Z,4.68
2023-05-16T08:51:49.702Z,5.28
2023-05-16T08:54:16.425Z,6.13
2023-05-16T08:56:43.091Z,5.15
2023-05-16T08:59:09.824Z,4.65
2023-05-16T09:01:36.494Z,4.82
2023-05-16T09:04:04.001Z,5.22
2023-05-16T09:06:31.164Z,4.72
2023-05-16T09:08:57.815Z,4.88
2023-05-16T09:11:24.568Z,4.45
2023-05-16T09:13:51.321Z,4.43
2023-05-16T09:16:18.631Z,4.07
2023-05-16T09:18:46.311Z,4.03
2023-05-16T09:21:13.486Z,4.80
2023-05-16T09:23:40.043Z,4.28
2023-05-16T09:26:08.269Z,4.03
2023-05-16T09:28:35.101Z,4.60
2023-05-16T09:31:02.474Z,4.32
2023-05-16T09:33:29.626Z,4.30
2023-05-16T09:35:57.340Z,4.40
2023-05-16T09:38:24.184Z,4.30
2023-05-16T09:40:50.944Z,4.50
2023-05-16T09:43:18.257Z,5.70
2023-05-16T09:45:48.353Z,4.32
2023-05-16T09:48:15.365Z,4.05
2023-05-16T09:50:43.222Z,4.53
2023-05-16T09:53:09.823Z,3.38
2023-05-16T09:55:36.425Z,4.93
2023-05-16T09:58:03.062Z,6.15
2023-05-16T10:00:31.303Z,5.47
2023-05-16T10:02:58.339Z,4.80
2023-05-16T10:05:26.993Z,4.68
2023-05-16T10:07:56.942Z,5.28
2023-05-16T10:10:23.774Z,5.25
2023-05-16T10:12:50.911Z,7.07
2023-05-16T10:15:17.656Z,5.40
2023-05-16T10:17:45.763Z,5.30
2023-05-16T10:20:12.703Z,5.35
2023-05-16T10:22:42.551Z,4.63
2023-05-16T10:25:15.174Z,5.43
2023-05-16T10:27:42.388Z,3.25
2023-05-16T10:30:10.214Z,3.53
2023-05-16T10:32:37.516Z,5.40
2023-05-16T10:35:04.877Z,5.55
2023-05-16T10:37:31.627Z,5.50
2023-05-16T10:39:59.948Z,6.72
2023-05-16T10:42:26.629Z,6.63
2023-05-16T10:45:05.039Z,5.13
2023-05-16T10:47:32.301Z,6.15
2023-05-16T10:49:58.883Z,5.05
2023-05-16T10:52:32.770Z,4.90
2023-05-16T10:55:02.249Z,3.97
2023-05-16T10:57:28.972Z,3.90
2023-05-16T10:59:59.134Z,3.05
2023-05-16T11:02:29.693Z,2.70
2023-05-16T11:04:57.148Z,4.18
2023-05-16T11:07:24.142Z,3.63
2023-05-16T11:10:03.418Z,3.50
2023-05-16T11:12:42.740Z,4.50
2023-05-16T11:15:28.814Z,3.60
2023-05-16T11:18:08.777Z,4.40
2023-05-16T11:20:36.480Z,3.65
2023-05-16T11:23:24.961Z,4.75
2023-05-16T11:25:54.098Z,4.50
2023-05-16T11:28:20.929Z,5.85
2023-05-16T11:30:49.493Z,5.07
2023-05-16T11:33:16.554Z,4.15
2023-05-16T11:35:43.527Z,3.10
2023-05-16T11:38:19.132Z,2.83
2023-05-16T11:40:45.783Z,2.40
2023-05-16T11:43:12.528Z,2.10
2023-05-16T11:45:39.138Z,1.80
2023-05-16T11:48:05.851Z,1.85
2023-05-16T11:50:34.252Z,2.08
2023-05-16T11:53:01.593Z,1.80
2023-05-16T11:55:41.135Z,1.98
2023-05-16T11:58:08.992Z,1.67
2023-05-16T12:00:35.717Z,1.30
2023-05-16T12:03:06.602Z,1.65
2023-05-16T12:05:34.808Z,2.05
2023-05-16T12:08:02.812Z,3.05
2023-05-16T12:10:33.404Z,3.10
2023-05-16T12:12:59.963Z,2.30
2023-05-16T12:15:27.116Z,1.80
2023-05-16T12:17:54.059Z,2.42
2023-05-16T12:20:20.662Z,3.65
2023-05-16T12:22:47.264Z,5.22
2023-05-16T12:25:24.071Z,4.75
2023-05-16T12:27:51.400Z,5.30
2023-05-16T12:30:18.661Z,5.75
2023-05-16T12:32:45.457Z,4.60
2023-05-16T12:35:13.383Z,4.90
2023-05-16T12:37:39.977Z,5.55
2023-05-16T12:40:06.994Z,4.68
2023-05-16T12:42:33.671Z,5.10
2023-05-16T12:45:00.424Z,4.18
2023-05-16T12:47:35.318Z,4.75
2023-05-16T12:50:02.045Z,5.00
2023-05-16T12:52:28.996Z,4.68
2023-05-16T12:54:55.626Z,5.25
2023-05-16T12:57:22.271Z,6.15
2023-05-16T12:59:50.043Z,6.05
2023-05-16T13:02:16.984Z,5.35
2023-05-16T13:04:43.625Z,5.85
2023-05-16T13:07:12.125Z,5.95
2023-05-16T13:09:38.761Z,5.47
2023-05-16T13:12:05.759Z,5.38
2023-05-16T13:14:32.902Z,5.57
2023-05-16T13:17:00.734Z,5.45
2023-05-16T13:19:27.498Z,5.13
2023-05-16T13:21:54.099Z,4.63
2023-05-16T13:24:20.880Z,4.05
2023-05-16T13:26:47.465Z,4.32
2023-05-16T13:29:15.052Z,3.97
2023-05-16T13:31:41.763Z,3.60
2023-05-16T13:34:08.299Z,2.63
2023-05-16T13:36:49.234Z,3.10
2023-05-16T13:39:20.178Z,3.08
2023-05-16T13:41:49.151Z,2.63
2023-05-16T13:44:16.476Z,2.67
2023-05-16T13:46:43.366Z,3.10
2023-05-16T13:49:09.951Z,2.78
2023-05-16T13:51:36.524Z,3.10
2023-05-16T13:54:03.113Z,3.22
2023-05-16T13:56:29.710Z,3.10
2023-05-16T13:59:02.471Z,3.20
2023-05-16T14:01:32.887Z,2.63
2023-05-16T14:03:59.699Z,3.08
2023-05-16T14:06:26.391Z,4.15
2023-05-16T14:08:53.163Z,3.95
2023-05-16T14:11:20.166Z,3.50
2023-05-16T14:13:46.784Z,3.78
2023-05-16T14:16:13.407Z,3.42
2023-05-16T14:18:39.991Z,3.08
2023-05-16T14:21:06.594Z,4.15
2023-05-16T14:23:33.239Z,3.17
2023-05-16T14:25:59.756Z,3.70
2023-05-16T14:28:26.520Z,4.03
2023-05-16T14:30:53.242Z,3.70
2023-05-16T14:33:19.857Z,4.53
2023-05-16T14:35:46.473Z,4.70
2023-05-16T14:38:13.170Z,4.68
2023-05-16T14:40:40.111Z,4.50
2023-05-16T14:43:06.725Z,4.28
2023-05-16T14:45:33.578Z,4.25
2023-05-16T14:48:00.199Z,5.47
2023-05-16T14:50:26.856Z,5.28
2023-05-16T14:52:53.520Z,4.78
2023-05-16T14:55:21.003Z,4.97
2023-05-16T14:57:50.430Z,5.15
2023-05-16T15:00:22.011Z,4.63
2023-05-16T15:02:48.616Z,4.90
2023-05-16T15:05:15.374Z,5.47
2023-05-16T15:07:42.106Z,5.28
2023-05-16T15:10:08.968Z,6.15
2023-05-16T15:12:36.008Z,6.10
2023-05-16T15:15:02.575Z,5.75
2023-05-16T15:17:29.159Z,5.22
2023-05-16T15:19:55.895Z,5.00
2023-05-16T15:22:22.465Z,5.55
2023-05-16T15:24:49.117Z,5.30
2023-05-16T15:27:15.801Z,3.30
2023-05-16T15:29:42.370Z,4.43
2023-05-16T15:32:09.007Z,4.25
2023-05-16T15:34:35.710Z,4.65
2023-05-16T15:37:02.273Z,4.63
2023-05-16T15:39:28.799Z,3.60
2023-05-16T15:44:25.448Z,3.83
2023-05-16T15:46:51.979Z,5.30
2023-05-16T15:49:18.554Z,5.55
2023-05-16T15:51:45.142Z,5.50
2023-05-16T15:54:11.665Z,4.28
2023-05-16T15:56:38.241Z,4.60
2023-05-16T15:59:04.891Z,6.22
2023-05-16T16:01:31.588Z,7.38
2023-05-16T16:03:58.321Z,6.90
2023-05-16T16:06:25.027Z,8.43
2023-05-16T16:08:51.774Z,7.88
2023-05-16T16:11:25.220Z,8.82
2023-05-16T16:13:51.977Z,6.88
2023-05-16T16:16:18.778Z,8.40
2023-05-16T16:18:45.473Z,7.63
2023-05-16T16:21:13.348Z,8.13
2023-05-16T16:23:39.965Z,8.60
2023-05-16T16:26:06.781Z,8.57
2023-05-16T16:28:33.368Z,8.90
2023-05-16T16:31:00.060Z,7.75
2023-05-16T16:33:26.712Z,8.68
2023-05-16T16:35:55.625Z,9.93
2023-05-16T16:38:22.172Z,9.77
2023-05-16T16:40:48.722Z,9.80
2023-05-16T16:43:15.296Z,9.50
2023-05-16T16:45:41.875Z,8.82
2023-05-16T16:48:09.564Z,10.43
2023-05-16T16:50:36.432Z,8.18
2023-05-16T16:53:04.524Z,8.82
2023-05-16T16:55:31.394Z,8.07
2023-05-16T16:57:57.962Z,8.80
2023-05-16T17:00:24.637Z,8.48
2023-05-16T17:02:51.464Z,11.15
2023-05-16T17:05:18.126Z,9.38
2023-05-16T17:07:44.703Z,9.70
2023-05-16T17:10:11.428Z,8.63
2023-05-16T17:12:46.258Z,9.18
2023-05-16T17:15:13.068Z,9.85
2023-05-16T17:17:39.789Z,9.70
2023-05-16T17:20:07.495Z,10.25
2023-05-16T17:22:34.213Z,10.43
2023-05-16T17:25:00.938Z,11.98
2023-05-16T17:27:27.787Z,11.68
2023-05-16T17:29:54.321Z,11.20
2023-05-16T17:32:21.620Z,12.85
2023-05-16T17:34:48.515Z,14.55
2023-05-16T17:37:15.351Z,14.07
2023-05-16T17:39:42.308Z,17.38
2023-05-16T17:42:09.561Z,16.75
2023-05-16T17:44:36.481Z,18.23
2023-05-16T17:47:03.117Z,17.35
2023-05-16T17:49:29.776Z,17.25
2023-05-16T17:52:00.363Z,16.92
2023-05-16T17:54:30.733Z,17.30
2023-05-16T17:56:57.708Z,17.42
2023-05-16T17:59:24.345Z,18.50
2023-05-16T18:01:50.917Z,18.98
2023-05-16T18:04:19.767Z,18.60
2023-05-16T18:06:48.871Z,18.30
2023-05-16T18:09:15.490Z,17.23
2023-05-16T18:11:42.232Z,18.08
2023-05-16T18:14:09.444Z,16.35
2023-05-16T18:16:36.098Z,15.07
2023-05-16T18:19:05.017Z,14.85
2023-05-16T18:21:32.159Z,15.82
2023-05-16T18:23:59.629Z,16.02
2023-05-16T18:26:27.450Z,15.63
2023-05-16T18:28:54.298Z,16.40
2023-05-16T18:31:21.180Z,15.57
2023-05-16T18:33:47.868Z,16.42
2023-05-16T18:36:14.596Z,14.98
2023-05-16T18:38:41.243Z,15.75
2023-05-16T18:41:07.887Z,14.00
2023-05-16T18:43:37.544Z,16.00
2023-05-16T18:46:04.339Z,14.88
2023-05-16T18:48:31.192Z,15.48
2023-05-16T18:50:57.982Z,16.23
2023-05-16T18:53:24.595Z,17.02
2023-05-16T18:55:51.156Z,16.83
2023-05-16T18:58:17.708Z,17.10
2023-05-16T19:00:44.345Z,16.17
2023-05-16T19:03:11.315Z,15.02
2023-05-16T19:05:38.137Z,15.35
2023-05-16T19:08:05.117Z,14.68
2023-05-16T19:10:32.639Z,14.23
2023-05-16T19:13:07.016Z,14.68
2023-05-16T19:15:36.714Z,17.50
2023-05-16T19:18:04.977Z,16.38
2023-05-16T19:20:32.715Z,13.65
2023-05-16T19:22:59.261Z,13.65
2023-05-16T19:25:26.551Z,12.60
2023-05-16T19:27:53.372Z,12.48
2023-05-16T19:30:20.097Z,12.30
2023-05-16T19:32:46.649Z,12.30
2023-05-16T19:35:13.234Z,11.80
2023-05-16T19:37:39.774Z,12.23
2023-05-16T19:40:06.674Z,12.82
2023-05-16T19:42:33.360Z,12.68
2023-05-16T19:44:59.910Z,12.75
2023-05-16T19:47:26.629Z,12.25
2023-05-16T19:49:53.254Z,12.23
2023-05-16T19:52:20.147Z,12.23
2023-05-16T19:54:46.704Z,11.77
2023-05-16T19:57:13.268Z,11.60
2023-05-16T19:59:39.923Z,11.40
2023-05-16T20:02:06.566Z,11.18
2023-05-16T20:04:33.228Z,10.68
2023-05-16T20:06:59.996Z,11.85
2023-05-16T20:09:28.607Z,11.25
2023-05-16T20:11:57.454Z,11.10
2023-05-16T20:14:24.114Z,12.23
2023-05-16T20:16:51.545Z,11.50
2023-05-16T20:19:19.299Z,12.38
2023-05-16T20:21:46.113Z,12.32
2023-05-16T20:24:12.765Z,12.02
2023-05-16T20:26:40.387Z,11.13
2023-05-16T20:29:06.978Z,10.75
2023-05-16T20:31:33.780Z,9.10
2023-05-16T20:34:00.513Z,8.27
2023-05-16T20:36:27.223Z,7.18
2023-05-16T20:38:53.791Z,7.90
2023-05-16T20:41:20.461Z,8.73
2023-05-16T20:43:47.059Z,8.20
2023-05-16T20:46:13.599Z,11.15
2023-05-16T20:48:40.318Z,12.70
2023-05-16T20:51:07.018Z,12.90
2023-05-16T20:53:33.640Z,13.30
2023-05-16T20:56:00.205Z,11.68
2023-05-16T20:58:26.900Z,12.50
2023-05-16T21:00:53.464Z,12.50
2023-05-16T21:03:20.107Z,12.48
2023-05-16T21:05:46.688Z,11.70
2023-05-16T21:08:13.265Z,9.18
2023-05-16T21:10:39.799Z,8.32
2023-05-16T21:13:06.341Z,6.20
2023-05-16T21:15:32.913Z,4.80
2023-05-16T21:17:59.625Z,4.53
2023-05-16T21:20:28.615Z,3.95
2023-05-16T21:22:55.181Z,4.30
2023-05-16T21:25:21.814Z,3.85
2023-05-16T21:27:48.352Z,3.30
2023-05-16T21:30:15.045Z,3.45
2023-05-16T21:32:41.736Z,3.35
2023-05-16T21:35:09.086Z,2.92
2023-05-16T21:37:35.680Z,2.90
2023-05-16T21:40:02.331Z,2.88
2023-05-16T21:42:28.898Z,3.47
2023-05-16T21:44:55.405Z,3.38
2023-05-16T21:47:22.072Z,2.83
2023-05-16T21:49:48.686Z,3.10
2023-05-16T21:52:15.248Z,2.90
2023-05-16T21:54:41.793Z,2.67
2023-05-16T21:57:08.338Z,3.30
2023-05-16T21:59:34.921Z,3.47
2023-05-16T22:02:01.476Z,3.58
2023-05-16T22:04:28.123Z,3.35
2023-05-16T22:06:54.754Z,3.20
2023-05-16T22:09:21.367Z,3.38
2023-05-16T22:11:47.905Z,3.47
2023-05-16T22:14:14.479Z,2.83
2023-05-16T22:16:41.126Z,3.38
2023-05-16T22:19:08.981Z,3.70
2023-05-16T22:21:36.181Z,3.78
2023-05-16T22:24:02.769Z,3.30
2023-05-16T22:26:29.573Z,3.17
2023-05-16T22:28:56.110Z,3.60
2023-05-16T22:31:22.651Z,3.15
2023-05-16T22:33:49.232Z,3.63
2023-05-16T22:36:15.755Z,3.47
2023-05-16T22:38:42.298Z,3.78
2023-05-16T22:41:08.897Z,3.53
2023-05-16T22:43:35.419Z,3.60
2023-05-16T22:46:03.276Z,4.07
2023-05-16T22:48:30.106Z,3.80
2023-05-16T22:50:57.230Z,4.25
2023-05-16T22:53:23.820Z,3.83
2023-05-16T22:55:50.417Z,4.07
2023-05-16T22:58:16.920Z,4.50
2023-05-16T23:00:43.532Z,3.83
2023-05-16T23:03:10.677Z,3.72
2023-05-16T23:05:37.336Z,3.88
2023-05-16T23:08:04.505Z,3.78
2023-05-16T23:10:31.536Z,3.03
2023-05-16T23:12:58.345Z,3.28
2023-05-16T23:15:24.880Z,3.45
2023-05-16T23:17:51.858Z,3.28
2023-05-16T23:20:18.398Z,3.03
2023-05-16T23:22:44.928Z,3.75
2023-05-16T23:25:11.426Z,3.25
2023-05-16T23:27:38.002Z,3.55
2023-05-16T23:30:04.779Z,4.38
2023-05-16T23:32:31.350Z,4.20
2023-05-16T23:34:57.996Z,4.40
2023-05-16T23:37:24.529Z,3.10
2023-05-16T23:39:51.200Z,3.55
2023-05-16T23:42:17.701Z,2.63
2023-05-16T23:44:44.343Z,2.72
2023-05-16T23:47:10.853Z,2.50
2023-05-16T23:49:37.459Z,3.22
2023-05-16T23:52:05.996Z,3.03
2023-05-16T23:54:33.020Z,3.00
2023-05-16T23:56:59.592Z,2.60
2023-05-16T23:59:26.253Z,3.00
